Accueil
METAR-TAF:

METAR-TAF

Aéroports :

Aéroport de Newquay Cornouailles

Newquay Cornwall, Angleterre

latitude: 50-26N, longitude: 005-00W, altitude: 119 m

Observation

Le bulletin a été fait il y a 37 minutes, à 07:20 UTC
Vent 12 kt de sud-est
Température 12°C
Humidité 88%
Pression 1021 hPa
Visibilité: 8000 m
Quelques nuages à une hauteur de 1200 ft

METAR: EGHQ 160720Z 14012KT 8000 FEW012 12/10 Q1021

Heure: 07:57 (07:57 UTC)

Prévision

Le bulletin a été fait il y a 35 minutes, à 07:22 UTC
Prévision valable du 16 à 07 UTC au 16 à 15 UTC
Vent 15 kt de est/sud-est
Visibilité: 8000 m
Nuages épars à une hauteur de 1500 ft
Temporairement
du 16 à 07 UTC au 16 à 15 UTC
Nuages fragmentés à une hauteur de 1400 ft

TAF: EGHQ 160722Z 1607/1615 12015KT 8000 SCT015 TEMPO 1607/1615 BKN014

Observations et prévisions météorologiques de plus de 4000 aéroports (messages METAR et TAF).

Les stations disponibles sont représentées par des disques jaunes et rouges sur la carte.

Passer la souris dessus pour voir le nom de la station.

Cliquer dessus pour voir les observations et prévisions météorologiques.

Pour changer de carte: cliquez sur les boutons verts avec une croix noire pour zoomer, sur le bouton vert avec un tiret pour effectuer un zoom arrière, ou sur les flèches vertes pour les cartes adjacentes.


METAR-TAF: